createdAt,value
2024-02-04T00:02:27.602Z,100.00
2024-02-04T00:04:56.543Z,100.00
2024-02-04T00:07:24.749Z,100.00
2024-02-04T00:09:52.610Z,100.00
2024-02-04T00:12:20.357Z,100.00
2024-02-04T00:14:50.799Z,100.00
2024-02-04T00:17:18.898Z,100.00
2024-02-04T00:19:47.056Z,100.00
2024-02-04T00:22:19.707Z,100.00
2024-02-04T00:24:47.380Z,100.00
2024-02-04T00:27:15.674Z,100.00
2024-02-04T00:29:43.296Z,100.00
2024-02-04T00:32:10.898Z,100.00
2024-02-04T00:34:38.728Z,100.00
2024-02-04T00:37:07.233Z,100.00
2024-02-04T00:39:35.131Z,100.00
2024-02-04T00:42:02.753Z,100.00
2024-02-04T00:44:30.404Z,100.00
2024-02-04T00:46:58.037Z,100.00
2024-02-04T00:49:27.723Z,100.00
2024-02-04T00:51:55.810Z,100.00
2024-02-04T00:54:23.478Z,100.00
2024-02-04T00:56:51.284Z,100.00
2024-02-04T00:59:18.904Z,100.00
2024-02-04T01:01:47.032Z,100.00
2024-02-04T01:04:14.789Z,100.00
2024-02-04T01:06:51.415Z,100.00
2024-02-04T01:09:29.019Z,100.00
2024-02-04T01:11:56.745Z,100.00
2024-02-04T01:14:24.425Z,100.00
2024-02-04T01:16:52.024Z,100.00
2024-02-04T01:19:19.819Z,100.00
2024-02-04T01:21:48.054Z,100.00
2024-02-04T01:24:15.770Z,100.00
2024-02-04T01:26:43.976Z,100.00
2024-02-04T01:29:12.069Z,100.00
2024-02-04T01:31:39.674Z,100.00
2024-02-04T01:34:07.397Z,100.00
2024-02-04T01:36:35.106Z,100.00
2024-02-04T01:39:03.616Z,100.00
2024-02-04T01:41:31.883Z,100.00
2024-02-04T01:43:59.532Z,100.00
2024-02-04T01:46:27.294Z,100.00
2024-02-04T01:48:55.548Z,100.00
2024-02-04T01:51:24.153Z,100.00
2024-02-04T01:53:54.843Z,100.00
2024-02-04T01:56:23.047Z,100.00
2024-02-04T01:58:50.973Z,100.00
2024-02-04T02:01:18.990Z,100.00
2024-02-04T02:03:47.440Z,100.00
2024-02-04T02:06:16.477Z,100.00
2024-02-04T02:08:44.845Z,100.00
2024-02-04T02:11:29.007Z,100.00
2024-02-04T02:14:04.212Z,100.00
2024-02-04T02:16:34.244Z,100.00
2024-02-04T02:19:48.800Z,100.00
2024-02-04T02:22:27.884Z,100.00
2024-02-04T02:24:58.582Z,100.00
2024-02-04T02:27:26.650Z,100.00
2024-02-04T02:29:54.437Z,100.00
2024-02-04T02:32:22.354Z,100.00
2024-02-04T02:34:50.647Z,100.00
2024-02-04T02:37:37.523Z,100.00
2024-02-04T02:40:08.341Z,100.00
2024-02-04T02:42:38.653Z,100.00
2024-02-04T02:45:08.145Z,100.00
2024-02-04T02:47:37.998Z,100.00
2024-02-04T02:50:07.438Z,100.00
2024-02-04T02:52:35.190Z,100.00
2024-02-04T02:55:02.838Z,100.00
2024-02-04T02:57:30.529Z,100.00
2024-02-04T02:59:58.387Z,100.00
2024-02-04T03:02:26.294Z,100.00
2024-02-04T03:04:53.996Z,100.00
2024-02-04T03:07:22.191Z,100.00
2024-02-04T03:09:50.147Z,100.00
2024-02-04T03:12:18.263Z,100.00
2024-02-04T03:14:45.852Z,100.00
2024-02-04T03:17:14.571Z,100.00
2024-02-04T03:19:42.193Z,100.00
2024-02-04T03:22:09.805Z,100.00
2024-02-04T03:24:38.200Z,100.00
2024-02-04T03:27:05.956Z,100.00
2024-02-04T03:29:33.693Z,100.00
2024-02-04T03:32:01.493Z,100.00
2024-02-04T03:34:29.313Z,100.00
2024-02-04T03:36:57.293Z,100.00
2024-02-04T03:39:25.048Z,100.00
2024-02-04T03:41:52.673Z,100.00
2024-02-04T03:44:20.807Z,100.00
2024-02-04T03:46:50.056Z,100.00
2024-02-04T03:49:19.527Z,100.00
2024-02-04T03:51:48.788Z,100.00
2024-02-04T03:54:16.516Z,100.00
2024-02-04T03:56:44.167Z,100.00
2024-02-04T03:59:12.279Z,100.00
2024-02-04T04:01:40.002Z,100.00
2024-02-04T04:04:08.310Z,100.00
2024-02-04T04:06:36.033Z,100.00
2024-02-04T04:09:03.880Z,100.00
2024-02-04T04:11:31.470Z,100.00
2024-02-04T04:13:59.217Z,100.00
2024-02-04T04:16:26.785Z,100.00
2024-02-04T04:18:54.530Z,100.00
2024-02-04T04:21:22.289Z,100.00
2024-02-04T04:23:49.988Z,100.00
2024-02-04T04:26:17.644Z,100.00
2024-02-04T04:28:46.108Z,100.00
2024-02-04T04:31:13.804Z,100.00
2024-02-04T04:33:42.145Z,100.00
2024-02-04T04:36:09.802Z,100.00
2024-02-04T04:38:37.435Z,100.00
2024-02-04T04:41:05.705Z,100.00
2024-02-04T04:43:34.483Z,100.00
2024-02-04T04:46:02.944Z,100.00
2024-02-04T04:48:31.339Z,100.00
2024-02-04T04:51:00.284Z,100.00
2024-02-04T04:53:27.989Z,100.00
2024-02-04T04:55:55.598Z,100.00
2024-02-04T04:58:23.283Z,100.00
2024-02-04T05:00:51.095Z,100.00
2024-02-04T05:03:18.883Z,100.00
2024-02-04T05:05:46.574Z,100.00
2024-02-04T05:08:16.698Z,100.00
2024-02-04T05:10:44.464Z,100.00
2024-02-04T05:13:13.100Z,100.00
2024-02-04T05:15:40.677Z,100.00
2024-02-04T05:18:08.349Z,100.00
2024-02-04T05:20:36.408Z,100.00
2024-02-04T05:23:04.152Z,100.00
2024-02-04T05:25:32.556Z,100.00
2024-02-04T05:28:00.175Z,100.00
2024-02-04T05:30:27.896Z,100.00
2024-02-04T05:32:56.665Z,100.00
2024-02-04T05:35:25.005Z,100.00
2024-02-04T05:37:52.624Z,100.00
2024-02-04T05:40:21.835Z,100.00
2024-02-04T05:42:50.159Z,100.00
2024-02-04T05:45:17.788Z,100.00
2024-02-04T05:47:45.956Z,100.00
2024-02-04T05:50:14.055Z,100.00
2024-02-04T05:52:41.734Z,100.00
2024-02-04T05:55:11.831Z,100.00
2024-02-04T05:57:39.463Z,100.00
2024-02-04T06:00:09.313Z,100.00
2024-02-04T06:02:37.917Z,100.00
2024-02-04T06:05:05.899Z,100.00
2024-02-04T06:07:33.431Z,100.00
2024-02-04T06:10:02.478Z,100.00
2024-02-04T06:12:31.024Z,100.00
2024-02-04T06:14:58.710Z,100.00
2024-02-04T06:17:26.371Z,100.00
2024-02-04T06:19:54.993Z,100.00
2024-02-04T06:22:22.695Z,100.00
2024-02-04T06:24:51.412Z,100.00
2024-02-04T06:27:19.053Z,100.00
2024-02-04T06:29:46.587Z,100.00
2024-02-04T06:32:14.594Z,100.00
2024-02-04T06:34:42.298Z,100.00
2024-02-04T06:37:09.970Z,100.00
2024-02-04T06:39:37.614Z,100.00
2024-02-04T06:42:05.639Z,100.00
2024-02-04T06:44:34.383Z,100.00
2024-02-04T06:47:03.373Z,100.00
2024-02-04T06:49:31.069Z,100.00
2024-02-04T06:51:59.009Z,100.00
2024-02-04T06:54:26.828Z,100.00
2024-02-04T06:56:55.280Z,100.00
2024-02-04T06:59:23.030Z,100.00
2024-02-04T07:01:51.350Z,100.00
2024-02-04T07:04:19.783Z,100.00
2024-02-04T07:06:47.924Z,100.00
2024-02-04T07:09:17.519Z,100.00
2024-02-04T07:11:45.730Z,100.00
2024-02-04T07:14:13.487Z,100.00
2024-02-04T07:16:41.246Z,100.00
2024-02-04T07:19:08.892Z,100.00
2024-02-04T07:21:37.002Z,100.00
2024-02-04T07:24:04.932Z,100.00
2024-02-04T07:26:32.570Z,100.00
2024-02-04T07:29:00.214Z,100.00
2024-02-04T07:31:27.826Z,100.00
2024-02-04T07:33:56.953Z,100.00
2024-02-04T07:36:24.632Z,100.00
2024-02-04T07:38:55.369Z,100.00
2024-02-04T07:41:24.272Z,100.00
2024-02-04T07:43:51.917Z,100.00
2024-02-04T07:46:19.656Z,100.00
2024-02-04T07:48:47.557Z,100.00
2024-02-04T07:51:15.341Z,100.00
2024-02-04T07:53:42.930Z,100.00
2024-02-04T07:56:12.066Z,100.00
2024-02-04T07:58:40.202Z,100.00
2024-02-04T08:01:08.376Z,100.00
2024-02-04T08:03:36.120Z,100.00
2024-02-04T08:06:03.938Z,100.00
2024-02-04T08:08:31.544Z,100.00
2024-02-04T08:11:01.454Z,100.00
2024-02-04T08:13:29.922Z,100.00
2024-02-04T08:15:57.939Z,100.00
2024-02-04T08:18:25.634Z,100.00
2024-02-04T08:20:54.251Z,100.00
2024-02-04T08:23:22.339Z,100.00
2024-02-04T08:25:51.249Z,100.00
2024-02-04T08:28:18.966Z,100.00
2024-02-04T08:30:46.650Z,100.00
2024-02-04T08:33:14.963Z,100.00
2024-02-04T08:35:42.871Z,100.00
2024-02-04T08:38:11.434Z,100.00
2024-02-04T08:40:39.089Z,100.00
2024-02-04T08:43:06.883Z,100.00
2024-02-04T08:45:34.662Z,96.10
2024-02-04T08:48:02.359Z,93.84
2024-02-04T08:50:30.748Z,96.29
2024-02-04T08:52:58.813Z,94.73
2024-02-04T08:55:26.887Z,96.48
2024-02-04T08:57:54.679Z,91.92
2024-02-04T09:00:22.893Z,94.44
2024-02-04T09:02:50.696Z,90.56
2024-02-04T09:05:19.396Z,88.47
2024-02-04T09:07:47.430Z,87.22
2024-02-04T09:10:15.384Z,85.80
2024-02-04T09:12:43.450Z,85.34
2024-02-04T09:15:11.388Z,85.57
2024-02-04T09:17:39.151Z,85.61
2024-02-04T09:20:09.201Z,81.74
2024-02-04T09:22:37.817Z,80.18
2024-02-04T09:25:06.506Z,76.56
2024-02-04T09:27:34.726Z,70.05
2024-02-04T09:30:02.605Z,70.12
2024-02-04T09:32:30.640Z,65.82
2024-02-04T09:34:58.608Z,69.42
2024-02-04T09:37:26.813Z,68.32
2024-02-04T09:39:55.446Z,64.64
2024-02-04T09:42:24.451Z,61.99
2024-02-04T09:44:52.866Z,60.69
2024-02-04T09:47:22.031Z,61.91
2024-02-04T09:49:50.377Z,56.46
2024-02-04T09:52:23.518Z,55.60
2024-02-04T09:55:02.099Z,54.41
2024-02-04T09:57:35.384Z,52.82
2024-02-04T10:00:06.836Z,54.02
2024-02-04T10:02:40.738Z,51.27
2024-02-04T10:05:10.558Z,50.46
2024-02-04T10:07:38.993Z,50.55
2024-02-04T10:10:08.281Z,49.05
2024-02-04T10:12:39.173Z,48.12
2024-02-04T10:15:08.938Z,49.23
2024-02-04T10:17:36.603Z,50.12
2024-02-04T10:20:04.743Z,51.06
2024-02-04T10:22:32.729Z,50.55
2024-02-04T10:25:08.541Z,52.65
2024-02-04T10:27:37.942Z,51.66
2024-02-04T10:30:07.889Z,55.51
2024-02-04T10:32:36.086Z,60.39
2024-02-04T10:35:04.309Z,59.06
2024-02-04T10:37:32.150Z,56.35
2024-02-04T10:40:00.107Z,53.92
2024-02-04T10:42:30.217Z,52.92
2024-02-04T10:45:00.220Z,52.42
2024-02-04T10:47:34.672Z,51.71
2024-02-04T10:50:05.239Z,53.69
2024-02-04T10:52:38.973Z,53.12
2024-02-04T10:55:09.950Z,53.47
2024-02-04T10:57:39.775Z,50.73
2024-02-04T11:00:13.022Z,50.28
2024-02-04T11:02:44.248Z,51.56
2024-02-04T11:05:12.350Z,52.51
2024-02-04T11:07:40.435Z,53.30
2024-02-04T11:10:09.031Z,54.16
2024-02-04T11:12:39.422Z,57.89
2024-02-04T11:15:10.259Z,55.63
2024-02-04T11:17:59.308Z,54.09
2024-02-04T11:20:30.976Z,53.37
2024-02-04T11:22:59.777Z,56.55
2024-02-04T11:25:44.555Z,54.03
2024-02-04T11:28:13.935Z,53.08
2024-02-04T11:30:45.057Z,53.52
2024-02-04T11:33:15.407Z,53.78
2024-02-04T11:35:43.721Z,52.16
2024-02-04T11:38:12.458Z,51.94
2024-02-04T11:40:41.126Z,50.27
2024-02-04T11:43:12.702Z,53.95
2024-02-04T11:45:44.076Z,49.76
2024-02-04T11:48:12.831Z,49.08
2024-02-04T11:50:43.931Z,50.47
2024-02-04T11:53:13.732Z,50.63
2024-02-04T11:55:45.377Z,51.44
2024-02-04T11:58:14.680Z,48.64
2024-02-04T12:00:47.131Z,47.56
2024-02-04T12:03:14.966Z,46.22
2024-02-04T12:05:44.183Z,44.31
2024-02-04T12:08:13.336Z,43.63
2024-02-04T12:10:44.884Z,44.51
2024-02-04T12:13:14.014Z,44.67
2024-02-04T12:15:42.718Z,45.83
2024-02-04T12:18:11.953Z,46.53
2024-02-04T12:20:40.741Z,46.33
2024-02-04T12:23:09.195Z,44.38
2024-02-04T12:25:42.422Z,43.10
2024-02-04T12:28:12.805Z,41.17
2024-02-04T12:30:40.591Z,42.62
2024-02-04T12:33:08.531Z,43.15
2024-02-04T12:35:36.838Z,41.35
2024-02-04T12:38:11.922Z,41.11
2024-02-04T12:40:39.513Z,43.52
2024-02-04T12:43:08.061Z,45.48
2024-02-04T12:45:35.872Z,45.60
2024-02-04T12:48:04.237Z,47.96
2024-02-04T12:50:34.628Z,44.99
2024-02-04T12:53:14.226Z,43.62
2024-02-04T12:55:44.148Z,45.38
2024-02-04T12:58:15.809Z,45.26
2024-02-04T13:00:44.071Z,42.50
2024-02-04T13:03:12.442Z,41.64
2024-02-04T13:05:40.380Z,42.57
2024-02-04T13:08:09.201Z,41.57
2024-02-04T13:10:38.015Z,40.30
2024-02-04T13:13:09.728Z,41.82
2024-02-04T13:15:42.636Z,44.00
2024-02-04T13:18:12.676Z,44.25
2024-02-04T13:20:41.889Z,45.02
2024-02-04T13:23:11.311Z,44.74
2024-02-04T13:25:39.797Z,44.43
2024-02-04T13:28:08.659Z,44.52
2024-02-04T13:30:37.078Z,45.45
2024-02-04T13:33:06.981Z,45.20
2024-02-04T13:35:37.588Z,47.72
2024-02-04T13:38:06.651Z,48.33
2024-02-04T13:40:34.705Z,49.17
2024-02-04T13:43:02.827Z,48.63
2024-02-04T13:45:30.498Z,50.22
2024-02-04T13:47:58.227Z,49.37
2024-02-04T13:50:26.030Z,50.04
2024-02-04T13:52:53.628Z,50.88
2024-02-04T13:55:22.285Z,50.47
2024-02-04T13:57:50.902Z,50.70
2024-02-04T14:00:18.990Z,50.29
2024-02-04T14:02:47.009Z,50.53
2024-02-04T14:05:14.757Z,50.79
2024-02-04T14:07:42.916Z,50.56
2024-02-04T14:10:13.014Z,51.23
2024-02-04T14:12:46.735Z,50.83
2024-02-04T14:15:15.095Z,48.98
2024-02-04T14:17:43.364Z,49.09
2024-02-04T14:20:11.411Z,50.58
2024-02-04T14:22:39.019Z,49.95
2024-02-04T14:25:07.488Z,48.91
2024-02-04T14:27:35.082Z,49.85
2024-02-04T14:30:02.909Z,50.70
2024-02-04T14:32:32.468Z,50.47
2024-02-04T14:35:00.979Z,50.30
2024-02-04T14:37:29.303Z,50.79
2024-02-04T14:39:57.143Z,50.90
2024-02-04T14:42:25.214Z,52.61
2024-02-04T14:44:52.873Z,55.13
2024-02-04T14:47:20.940Z,56.04
2024-02-04T14:49:50.150Z,55.50
2024-02-04T14:52:19.158Z,55.10
2024-02-04T14:54:46.993Z,54.11
2024-02-04T14:57:15.174Z,54.60
2024-02-04T14:59:44.304Z,53.73
2024-02-04T15:02:12.112Z,54.46
2024-02-04T15:04:41.090Z,52.72
2024-02-04T15:07:09.569Z,50.83
2024-02-04T15:09:37.796Z,51.12
2024-02-04T15:12:06.247Z,50.80
2024-02-04T15:14:34.165Z,51.53
2024-02-04T15:17:03.293Z,53.32
2024-02-04T15:19:37.347Z,54.62
2024-02-04T15:22:06.152Z,57.23
2024-02-04T15:24:34.927Z,58.42
2024-02-04T15:27:06.301Z,64.36
2024-02-04T15:29:36.973Z,62.52
2024-02-04T15:32:08.043Z,65.44
2024-02-04T15:34:37.246Z,66.26
2024-02-04T15:37:05.377Z,66.98
2024-02-04T15:39:34.895Z,69.16
2024-02-04T15:42:02.545Z,71.96
2024-02-04T15:44:30.113Z,75.35
2024-02-04T15:47:00.152Z,77.18
2024-02-04T15:49:29.468Z,77.42
2024-02-04T15:51:57.779Z,78.21
2024-02-04T15:54:25.806Z,80.47
2024-02-04T15:57:04.023Z,80.36
2024-02-04T15:59:51.554Z,81.43
2024-02-04T16:02:19.532Z,83.38
2024-02-04T16:04:47.241Z,83.46
2024-02-04T16:07:16.399Z,85.02
2024-02-04T16:09:49.231Z,86.91
2024-02-04T16:12:22.006Z,86.05
2024-02-04T16:14:51.760Z,86.69
2024-02-04T16:17:21.475Z,87.39
2024-02-04T16:19:51.090Z,88.02
2024-02-04T16:22:20.651Z,90.01
2024-02-04T16:24:48.492Z,91.20
2024-02-04T16:27:16.281Z,92.12
2024-02-04T16:29:43.896Z,94.49
2024-02-04T16:32:15.530Z,97.05
2024-02-04T16:34:43.540Z,97.40
2024-02-04T16:37:11.819Z,97.06
2024-02-04T16:39:40.181Z,95.61
2024-02-04T16:42:10.033Z,95.13
2024-02-04T16:44:37.866Z,96.54
2024-02-04T16:47:06.149Z,96.31
2024-02-04T16:49:34.313Z,97.57
2024-02-04T16:52:02.880Z,99.17
2024-02-04T16:54:30.757Z,98.98
2024-02-04T16:56:59.354Z,99.44
2024-02-04T16:59:27.401Z,99.59
2024-02-04T17:01:55.699Z,99.93
2024-02-04T17:04:24.138Z,99.03
2024-02-04T17:06:52.265Z,100.00
2024-02-04T17:09:20.729Z,100.00
2024-02-04T17:11:48.820Z,100.00
2024-02-04T17:14:18.529Z,100.00
2024-02-04T17:17:12.604Z,100.00
2024-02-04T17:19:45.268Z,100.00
2024-02-04T17:22:19.357Z,100.00
2024-02-04T17:24:51.661Z,100.00
2024-02-04T17:27:20.166Z,100.00
2024-02-04T17:29:53.752Z,100.00
2024-02-04T17:32:26.796Z,100.00
2024-02-04T17:34:55.537Z,100.00
2024-02-04T17:37:23.415Z,100.00
2024-02-04T17:39:51.282Z,100.00
2024-02-04T17:42:19.200Z,100.00
2024-02-04T17:44:47.921Z,100.00
2024-02-04T17:47:16.360Z,100.00
2024-02-04T17:49:44.359Z,100.00
2024-02-04T17:52:12.050Z,100.00
2024-02-04T17:54:40.635Z,100.00
2024-02-04T17:57:10.339Z,100.00
2024-02-04T17:59:38.021Z,100.00
2024-02-04T18:02:06.434Z,100.00
2024-02-04T18:04:35.547Z,100.00
2024-02-04T18:07:04.455Z,100.00
2024-02-04T18:09:34.809Z,100.00
2024-02-04T18:12:02.460Z,100.00
2024-02-04T18:14:30.457Z,100.00
2024-02-04T18:16:58.162Z,100.00
2024-02-04T18:19:25.966Z,100.00
2024-02-04T18:21:53.752Z,100.00
2024-02-04T18:24:21.814Z,100.00
2024-02-04T18:26:49.890Z,100.00
2024-02-04T18:29:18.033Z,100.00
2024-02-04T18:31:49.660Z,100.00
2024-02-04T18:34:17.342Z,100.00
2024-02-04T18:36:45.180Z,100.00
2024-02-04T18:39:14.779Z,100.00
2024-02-04T18:41:46.645Z,100.00
2024-02-04T18:44:16.468Z,100.00
2024-02-04T18:46:44.670Z,100.00
2024-02-04T18:49:12.740Z,100.00
2024-02-04T18:51:47.471Z,100.00
2024-02-04T18:54:15.387Z,100.00
2024-02-04T18:56:48.204Z,100.00
2024-02-04T18:59:15.831Z,100.00
2024-02-04T19:01:45.377Z,100.00
2024-02-04T19:04:13.200Z,100.00
2024-02-04T19:06:49.219Z,100.00
2024-02-04T19:09:17.307Z,100.00
2024-02-04T19:11:45.596Z,100.00
2024-02-04T19:14:13.962Z,100.00
2024-02-04T19:16:42.184Z,100.00
2024-02-04T19:19:11.799Z,100.00
2024-02-04T19:21:47.204Z,100.00
2024-02-04T19:24:19.612Z,100.00
2024-02-04T19:26:49.210Z,100.00
2024-02-04T19:29:18.025Z,100.00
2024-02-04T19:31:46.676Z,100.00
2024-02-04T19:34:14.516Z,100.00
2024-02-04T19:36:44.661Z,100.00
2024-02-04T19:39:14.529Z,100.00
2024-02-04T19:41:44.682Z,100.00
2024-02-04T19:44:13.265Z,100.00
2024-02-04T19:46:40.909Z,100.00
2024-02-04T19:49:08.678Z,100.00
2024-02-04T19:51:36.889Z,100.00
2024-02-04T19:54:04.661Z,100.00
2024-02-04T19:56:32.923Z,100.00
2024-02-04T19:59:04.894Z,100.00
2024-02-04T20:01:36.131Z,100.00
2024-02-04T20:04:05.180Z,100.00
2024-02-04T20:06:33.446Z,100.00
2024-02-04T20:09:01.101Z,100.00
2024-02-04T20:11:33.396Z,100.00
2024-02-04T20:14:05.069Z,100.00
2024-02-04T20:16:32.977Z,100.00
2024-02-04T20:19:03.893Z,100.00
2024-02-04T20:21:33.921Z,100.00
2024-02-04T20:24:02.344Z,100.00
2024-02-04T20:26:30.670Z,100.00
2024-02-04T20:28:58.330Z,100.00
2024-02-04T20:31:26.146Z,100.00
2024-02-04T20:33:54.707Z,100.00
2024-02-04T20:36:23.333Z,100.00
2024-02-04T20:38:51.900Z,100.00
2024-02-04T20:41:19.729Z,100.00
2024-02-04T20:43:49.214Z,100.00
2024-02-04T20:46:16.868Z,100.00
2024-02-04T20:48:46.285Z,100.00
2024-02-04T20:51:14.182Z,100.00
2024-02-04T20:53:42.855Z,100.00
2024-02-04T20:56:10.785Z,100.00
2024-02-04T20:58:39.708Z,100.00
2024-02-04T21:01:08.135Z,100.00
2024-02-04T21:03:36.959Z,100.00
2024-02-04T21:06:05.476Z,100.00
2024-02-04T21:08:33.119Z,100.00
2024-02-04T21:11:01.988Z,100.00
2024-02-04T21:13:29.945Z,100.00
2024-02-04T21:15:57.583Z,100.00
2024-02-04T21:18:25.522Z,100.00
2024-02-04T21:20:53.258Z,100.00
2024-02-04T21:23:21.414Z,100.00
2024-02-04T21:25:50.890Z,100.00
2024-02-04T21:28:19.016Z,100.00
2024-02-04T21:30:46.677Z,100.00
2024-02-04T21:33:14.401Z,100.00
2024-02-04T21:35:42.565Z,100.00
2024-02-04T21:38:11.159Z,100.00
2024-02-04T21:40:46.692Z,100.00
2024-02-04T21:43:14.547Z,100.00
2024-02-04T21:45:42.273Z,100.00
2024-02-04T21:48:10.527Z,100.00
2024-02-04T21:50:41.650Z,100.00
2024-02-04T21:53:11.216Z,100.00
2024-02-04T21:55:38.899Z,100.00
2024-02-04T21:58:06.555Z,100.00
2024-02-04T22:00:35.954Z,100.00
2024-02-04T22:03:05.639Z,100.00
2024-02-04T22:05:35.649Z,100.00
2024-02-04T22:08:05.262Z,100.00
2024-02-04T22:10:32.893Z,100.00
2024-02-04T22:13:00.718Z,100.00
2024-02-04T22:15:28.389Z,100.00
2024-02-04T22:17:58.179Z,100.00
2024-02-04T22:20:28.230Z,100.00
2024-02-04T22:22:55.917Z,100.00
2024-02-04T22:25:30.595Z,100.00
2024-02-04T22:28:00.014Z,100.00
2024-02-04T22:30:28.390Z,100.00
2024-02-04T22:32:56.189Z,100.00
2024-02-04T22:35:26.105Z,100.00
2024-02-04T22:37:55.111Z,100.00
2024-02-04T22:40:25.347Z,100.00
2024-02-04T22:42:53.288Z,100.00
2024-02-04T22:45:21.219Z,100.00
2024-02-04T22:47:49.299Z,100.00
2024-02-04T22:50:18.853Z,100.00
2024-02-04T22:52:46.585Z,100.00
2024-02-04T22:55:14.300Z,100.00
2024-02-04T22:57:42.148Z,100.00
2024-02-04T23:00:14.462Z,100.00
2024-02-04T23:02:42.641Z,100.00
2024-02-04T23:05:11.060Z,100.00
2024-02-04T23:07:47.549Z,100.00
2024-02-04T23:10:19.984Z,100.00
2024-02-04T23:12:48.938Z,100.00
2024-02-04T23:15:17.836Z,100.00
2024-02-04T23:17:46.226Z,100.00
2024-02-04T23:20:14.022Z,100.00
2024-02-04T23:22:41.657Z,100.00
2024-02-04T23:25:09.885Z,100.00
2024-02-04T23:27:37.642Z,100.00
2024-02-04T23:30:07.103Z,100.00
2024-02-04T23:32:34.847Z,100.00
2024-02-04T23:35:02.655Z,100.00
2024-02-04T23:37:30.459Z,100.00
2024-02-04T23:39:58.199Z,100.00
2024-02-04T23:42:25.857Z,100.00
2024-02-04T23:44:53.556Z,100.00
2024-02-04T23:47:22.275Z,100.00
2024-02-04T23:49:49.995Z,100.00
2024-02-04T23:52:18.359Z,100.00
2024-02-04T23:54:46.535Z,100.00
2024-02-04T23:57:14.282Z,100.00
2024-02-04T23:59:41.850Z,100.00
